createdAt,value
2024-01-06T00:01:23.759Z,68.86
2024-01-06T00:03:52.242Z,68.90
2024-01-06T00:06:20.555Z,69.01
2024-01-06T00:08:55.372Z,69.18
2024-01-06T00:11:24.606Z,69.35
2024-01-06T00:13:52.777Z,69.41
2024-01-06T00:16:21.782Z,69.42
2024-01-06T00:18:50.234Z,69.31
2024-01-06T00:21:18.653Z,69.25
2024-01-06T00:23:47.078Z,69.31
2024-01-06T00:26:15.239Z,69.48
2024-01-06T00:28:43.691Z,69.59
2024-01-06T00:31:12.032Z,69.84
2024-01-06T00:33:40.577Z,70.28
2024-01-06T00:36:09.458Z,70.67
2024-01-06T00:38:38.051Z,71.11
2024-01-06T00:41:06.520Z,71.08
2024-01-06T00:43:34.725Z,72.02
2024-01-06T00:46:02.994Z,72.16
2024-01-06T00:48:31.490Z,72.68
2024-01-06T00:50:59.917Z,73.12
2024-01-06T00:53:28.420Z,74.03
2024-01-06T00:55:56.519Z,74.55
2024-01-06T00:58:24.793Z,75.01
2024-01-06T01:00:53.026Z,74.82
2024-01-06T01:03:21.554Z,74.36
2024-01-06T01:05:50.332Z,74.31
2024-01-06T01:08:19.235Z,74.00
2024-01-06T01:10:47.406Z,74.02
2024-01-06T01:13:15.600Z,73.84
2024-01-06T01:15:43.837Z,73.82
2024-01-06T01:18:12.271Z,74.00
2024-01-06T01:20:42.974Z,73.98
2024-01-06T01:23:11.295Z,73.73
2024-01-06T01:25:39.751Z,74.26
2024-01-06T01:28:08.173Z,75.39
2024-01-06T01:30:36.717Z,75.31
2024-01-06T01:33:05.734Z,75.76
2024-01-06T01:35:34.251Z,75.74
2024-01-06T01:38:02.409Z,75.79
2024-01-06T01:40:30.524Z,75.95
2024-01-06T01:42:58.705Z,75.64
2024-01-06T01:45:27.135Z,75.43
2024-01-06T01:47:55.468Z,75.56
2024-01-06T01:50:24.394Z,75.59
2024-01-06T01:52:53.092Z,75.42
2024-01-06T01:55:21.866Z,75.34
2024-01-06T01:57:50.265Z,75.55
2024-01-06T02:00:19.063Z,75.41
2024-01-06T02:02:48.065Z,75.45
2024-01-06T02:05:16.322Z,75.42
2024-01-06T02:07:44.587Z,75.57
2024-01-06T02:10:13.012Z,75.52
2024-01-06T02:12:41.375Z,75.55
2024-01-06T02:15:10.375Z,75.40
2024-01-06T02:17:41.152Z,75.30
2024-01-06T02:20:10.823Z,75.30
2024-01-06T02:22:39.000Z,75.41
2024-01-06T02:25:13.677Z,75.30
2024-01-06T02:27:42.310Z,75.45
2024-01-06T02:30:11.491Z,75.56
2024-01-06T02:32:39.984Z,75.80
2024-01-06T02:35:08.998Z,75.61
2024-01-06T02:37:37.322Z,75.81
2024-01-06T02:40:06.169Z,75.51
2024-01-06T02:42:34.503Z,75.32
2024-01-06T02:45:02.928Z,75.08
2024-01-06T02:47:31.062Z,74.94
2024-01-06T02:49:59.588Z,74.98
2024-01-06T02:52:27.894Z,74.92
2024-01-06T02:54:56.351Z,74.95
2024-01-06T02:57:24.888Z,75.00
2024-01-06T02:59:53.421Z,74.86
2024-01-06T03:02:21.745Z,74.99
2024-01-06T03:04:50.543Z,75.02
2024-01-06T03:07:18.811Z,74.83
2024-01-06T03:09:47.243Z,74.86
2024-01-06T03:12:15.788Z,74.97
2024-01-06T03:14:44.176Z,75.29
2024-01-06T03:17:12.760Z,75.90
2024-01-06T03:19:41.242Z,76.11
2024-01-06T03:22:09.668Z,76.15
2024-01-06T03:24:38.375Z,76.24
2024-01-06T03:27:06.561Z,76.25
2024-01-06T03:29:34.707Z,76.37
2024-01-06T03:32:03.085Z,76.36
2024-01-06T03:34:31.514Z,76.38
2024-01-06T03:36:59.958Z,76.37
2024-01-06T03:39:28.309Z,76.43
2024-01-06T03:41:56.808Z,76.10
2024-01-06T03:44:25.115Z,76.08
2024-01-06T03:46:53.477Z,76.04
2024-01-06T03:49:22.197Z,75.81
2024-01-06T03:51:50.771Z,75.72
2024-01-06T03:54:19.122Z,75.52
2024-01-06T03:56:47.701Z,75.72
2024-01-06T03:59:16.017Z,75.73
2024-01-06T04:01:44.385Z,75.89
2024-01-06T04:04:13.790Z,75.77
2024-01-06T04:06:42.329Z,75.77
2024-01-06T04:09:10.967Z,75.68
2024-01-06T04:11:39.227Z,75.98
2024-01-06T04:14:07.640Z,75.88
2024-01-06T04:16:35.936Z,75.69
2024-01-06T04:19:04.246Z,76.03
2024-01-06T04:21:32.617Z,75.99
2024-01-06T04:24:01.297Z,75.90
2024-01-06T04:26:29.558Z,75.75
2024-01-06T04:28:57.779Z,75.86
2024-01-06T04:31:26.299Z,75.89
2024-01-06T04:33:54.996Z,76.05
2024-01-06T04:36:23.529Z,75.86
2024-01-06T04:38:51.999Z,75.92
2024-01-06T04:41:20.194Z,75.88
2024-01-06T04:43:48.536Z,75.93
2024-01-06T04:46:16.976Z,75.98
2024-01-06T04:48:45.632Z,75.91
2024-01-06T04:51:14.820Z,75.83
2024-01-06T04:53:43.298Z,75.71
2024-01-06T04:56:11.689Z,75.59
2024-01-06T04:58:40.186Z,75.41
2024-01-06T05:01:09.629Z,75.50
2024-01-06T05:03:38.412Z,75.57
2024-01-06T05:06:06.731Z,75.54
2024-01-06T05:08:34.947Z,75.41
2024-01-06T05:11:03.228Z,75.51
2024-01-06T05:13:31.931Z,75.52
2024-01-06T05:16:00.204Z,75.56
2024-01-06T05:18:28.926Z,75.45
2024-01-06T05:20:58.191Z,75.63
2024-01-06T05:23:26.523Z,75.57
2024-01-06T05:25:54.932Z,75.67
2024-01-06T05:28:23.057Z,75.73
2024-01-06T05:30:51.530Z,75.98
2024-01-06T05:33:20.072Z,76.02
2024-01-06T05:35:48.590Z,75.95
2024-01-06T05:38:18.306Z,75.99
2024-01-06T05:40:46.464Z,75.92
2024-01-06T05:43:14.787Z,75.75
2024-01-06T05:45:43.290Z,75.80
2024-01-06T05:48:12.274Z,75.74
2024-01-06T05:50:42.152Z,75.61
2024-01-06T05:53:11.896Z,75.55
2024-01-06T05:55:40.087Z,75.49
2024-01-06T05:58:08.264Z,75.65
2024-01-06T06:00:36.828Z,75.60
2024-01-06T06:03:06.177Z,75.57
2024-01-06T06:05:34.868Z,75.66
2024-01-06T06:08:03.091Z,75.76
2024-01-06T06:10:42.103Z,75.87
2024-01-06T06:13:12.263Z,75.94
2024-01-06T06:15:40.749Z,76.04
2024-01-06T06:18:10.122Z,76.03
2024-01-06T06:20:39.890Z,76.13
2024-01-06T06:23:08.318Z,75.96
2024-01-06T06:25:39.642Z,76.06
2024-01-06T06:28:07.830Z,76.02
2024-01-06T06:30:36.557Z,76.70
2024-01-06T06:33:05.987Z,76.48
2024-01-06T06:35:34.770Z,76.30
2024-01-06T06:38:03.481Z,76.56
2024-01-06T06:40:31.723Z,76.69
2024-01-06T06:43:00.254Z,76.84
2024-01-06T06:45:28.758Z,77.02
2024-01-06T06:47:57.194Z,77.04
2024-01-06T06:50:25.879Z,77.02
2024-01-06T06:52:54.233Z,77.27
2024-01-06T06:55:22.364Z,77.16
2024-01-06T06:57:50.808Z,77.21
2024-01-06T07:00:20.199Z,77.36
2024-01-06T07:02:49.020Z,77.64
2024-01-06T07:05:18.398Z,77.55
2024-01-06T07:07:48.002Z,77.76
2024-01-06T07:10:16.565Z,77.64
2024-01-06T07:12:44.976Z,77.95
2024-01-06T07:15:13.414Z,77.69
2024-01-06T07:17:41.724Z,77.57
2024-01-06T07:20:10.622Z,77.69
2024-01-06T07:22:39.162Z,77.71
2024-01-06T07:25:08.759Z,77.65
2024-01-06T07:27:37.084Z,77.86
2024-01-06T07:30:06.189Z,77.84
2024-01-06T07:32:34.531Z,77.79
2024-01-06T07:35:07.390Z,77.82
2024-01-06T07:37:36.489Z,77.76
2024-01-06T07:40:05.467Z,77.57
2024-01-06T07:42:33.649Z,78.02
2024-01-06T07:45:01.982Z,77.98
2024-01-06T07:47:30.232Z,77.84
2024-01-06T07:49:58.863Z,77.61
2024-01-06T07:52:27.325Z,77.62
2024-01-06T07:54:55.483Z,77.73
2024-01-06T07:57:23.695Z,77.74
2024-01-06T07:59:52.589Z,77.56
2024-01-06T08:02:20.987Z,77.36
2024-01-06T08:04:49.219Z,77.29
2024-01-06T08:07:17.823Z,77.09
2024-01-06T08:09:46.112Z,77.07
2024-01-06T08:12:14.703Z,77.32
2024-01-06T08:14:43.028Z,77.12
2024-01-06T08:17:11.175Z,77.23
2024-01-06T08:19:39.365Z,77.41
2024-01-06T08:22:07.645Z,77.22
2024-01-06T08:24:36.324Z,77.01
2024-01-06T08:27:05.221Z,76.72
2024-01-06T08:29:33.539Z,76.65
2024-01-06T08:32:02.082Z,76.35
2024-01-06T08:34:33.225Z,76.22
2024-01-06T08:37:01.916Z,75.96
2024-01-06T08:39:30.434Z,75.91
2024-01-06T08:42:01.618Z,75.95
2024-01-06T08:44:30.321Z,75.67
2024-01-06T08:46:58.842Z,75.81
2024-01-06T08:49:27.365Z,76.05
2024-01-06T08:51:55.893Z,75.82
2024-01-06T08:54:24.464Z,75.70
2024-01-06T08:56:52.732Z,75.44
2024-01-06T08:59:21.454Z,74.83
2024-01-06T09:01:50.675Z,74.65
2024-01-06T09:04:19.191Z,74.29
2024-01-06T09:06:48.461Z,74.02
2024-01-06T09:09:16.902Z,73.87
2024-01-06T09:11:45.494Z,73.80
2024-01-06T09:14:14.256Z,73.98
2024-01-06T09:16:42.532Z,73.67
2024-01-06T09:19:10.955Z,73.48
2024-01-06T09:21:39.380Z,73.69
2024-01-06T09:24:08.004Z,73.62
2024-01-06T09:26:37.040Z,73.29
2024-01-06T09:29:05.333Z,73.01
2024-01-06T09:31:34.078Z,72.99
2024-01-06T09:34:04.093Z,73.03
2024-01-06T09:36:33.300Z,72.94
2024-01-06T09:39:01.994Z,72.70
2024-01-06T09:41:30.567Z,72.46
2024-01-06T09:43:58.994Z,72.39
2024-01-06T09:46:30.462Z,71.42
2024-01-06T09:49:00.154Z,71.15
2024-01-06T09:51:30.190Z,71.00
2024-01-06T09:54:00.849Z,71.11
2024-01-06T09:56:30.840Z,71.19
2024-01-06T09:58:59.398Z,71.08
2024-01-06T10:01:27.764Z,70.99
2024-01-06T10:03:56.339Z,70.53
2024-01-06T10:06:24.563Z,69.80
2024-01-06T10:08:53.995Z,69.73
2024-01-06T10:11:24.140Z,70.18
2024-01-06T10:13:53.283Z,70.22
2024-01-06T10:16:21.872Z,70.12
2024-01-06T10:18:53.777Z,69.38
2024-01-06T10:21:23.967Z,69.04
2024-01-06T10:23:52.750Z,69.31
2024-01-06T10:26:21.413Z,69.10
2024-01-06T10:28:51.554Z,69.02
2024-01-06T10:31:20.491Z,68.63
2024-01-06T10:33:49.982Z,68.05
2024-01-06T10:36:19.384Z,68.02
2024-01-06T10:38:47.758Z,67.06
2024-01-06T10:41:17.716Z,66.55
2024-01-06T10:43:48.334Z,66.04
2024-01-06T10:46:17.451Z,65.46
2024-01-06T10:48:47.117Z,65.32
2024-01-06T10:51:16.648Z,65.38
2024-01-06T10:53:45.141Z,64.75
2024-01-06T10:56:13.734Z,64.75
2024-01-06T10:58:53.297Z,64.47
2024-01-06T11:01:27.925Z,63.88
2024-01-06T11:04:00.814Z,64.49
2024-01-06T11:06:30.492Z,64.74
2024-01-06T11:09:14.916Z,64.46
2024-01-06T11:11:44.030Z,64.46
2024-01-06T11:14:38.615Z,64.50
2024-01-06T11:17:06.956Z,63.64
2024-01-06T11:19:35.982Z,62.73
2024-01-06T11:22:21.507Z,62.08
2024-01-06T11:24:54.966Z,61.22
2024-01-06T11:27:31.297Z,58.82
2024-01-06T11:30:01.841Z,58.71
2024-01-06T11:32:37.862Z,58.10
2024-01-06T11:35:17.001Z,58.11
2024-01-06T11:37:46.477Z,57.85
2024-01-06T11:40:25.102Z,58.06
2024-01-06T11:43:10.688Z,57.53
2024-01-06T11:45:42.641Z,56.35
2024-01-06T11:48:14.070Z,57.13
2024-01-06T11:50:42.938Z,56.18
2024-01-06T11:53:11.919Z,56.04
2024-01-06T11:55:41.255Z,56.74
2024-01-06T11:58:09.912Z,56.91
2024-01-06T12:00:40.892Z,56.78
2024-01-06T12:03:10.239Z,57.24
2024-01-06T12:05:39.398Z,56.82
2024-01-06T12:08:09.285Z,57.13
2024-01-06T12:10:38.721Z,57.61
2024-01-06T12:13:13.306Z,58.07
2024-01-06T12:15:42.841Z,58.52
2024-01-06T12:18:11.471Z,58.38
2024-01-06T12:20:40.307Z,58.19
2024-01-06T12:23:08.638Z,58.44
2024-01-06T12:25:40.296Z,58.50
2024-01-06T12:28:10.021Z,58.58
2024-01-06T12:30:39.929Z,58.81
2024-01-06T12:33:08.670Z,58.94
2024-01-06T12:35:37.782Z,58.87
2024-01-06T12:38:08.430Z,58.74
2024-01-06T12:40:38.602Z,58.53
2024-01-06T12:43:07.370Z,58.74
2024-01-06T12:45:36.011Z,59.06
2024-01-06T12:48:05.127Z,59.40
2024-01-06T12:50:33.537Z,59.61
2024-01-06T12:53:02.593Z,59.74
2024-01-06T12:55:30.803Z,59.93
2024-01-06T12:58:02.692Z,60.11
2024-01-06T13:00:35.436Z,60.09
2024-01-06T13:03:06.152Z,60.17
2024-01-06T13:05:34.878Z,60.32
2024-01-06T13:08:04.159Z,60.11
2024-01-06T13:10:32.719Z,60.31
2024-01-06T13:13:01.305Z,60.40
2024-01-06T13:15:29.661Z,60.12
2024-01-06T13:17:58.461Z,59.87
2024-01-06T13:20:26.874Z,59.84
2024-01-06T13:22:55.307Z,60.03
2024-01-06T13:25:24.300Z,60.22
2024-01-06T13:27:53.092Z,60.27
2024-01-06T13:30:21.742Z,60.25
2024-01-06T13:32:52.122Z,60.32
2024-01-06T13:35:21.898Z,60.50
2024-01-06T13:37:51.829Z,60.69
2024-01-06T13:40:21.039Z,60.69
2024-01-06T13:42:51.943Z,60.83
2024-01-06T13:45:20.445Z,60.89
2024-01-06T13:47:49.260Z,61.11
2024-01-06T13:50:18.582Z,61.25
2024-01-06T13:52:46.942Z,61.58
2024-01-06T13:55:15.802Z,61.84
2024-01-06T13:57:44.265Z,61.84
2024-01-06T14:00:20.931Z,62.05
2024-01-06T14:02:50.164Z,62.15
2024-01-06T14:05:20.989Z,62.31
2024-01-06T14:07:51.974Z,62.30
2024-01-06T14:10:20.426Z,62.41
2024-01-06T14:12:50.855Z,62.57
2024-01-06T14:15:19.239Z,62.66
2024-01-06T14:17:51.328Z,62.88
2024-01-06T14:20:20.281Z,62.98
2024-01-06T14:22:50.031Z,63.21
2024-01-06T14:25:21.484Z,63.58
2024-01-06T14:27:50.386Z,63.68
2024-01-06T14:30:19.079Z,63.89
2024-01-06T14:32:47.537Z,63.92
2024-01-06T14:35:17.631Z,63.96
2024-01-06T14:37:46.158Z,64.21
2024-01-06T14:40:15.038Z,64.48
2024-01-06T14:42:43.422Z,64.70
2024-01-06T14:45:11.801Z,64.82
2024-01-06T14:47:41.868Z,65.11
2024-01-06T14:50:10.716Z,65.17
2024-01-06T14:52:38.872Z,64.99
2024-01-06T14:55:08.067Z,65.20
2024-01-06T14:57:36.921Z,65.23
2024-01-06T15:00:07.013Z,65.27
2024-01-06T15:02:35.332Z,65.51
2024-01-06T15:05:05.644Z,65.42
2024-01-06T15:07:34.223Z,65.46
2024-01-06T15:10:04.800Z,65.57
2024-01-06T15:12:33.426Z,65.53
2024-01-06T15:15:01.774Z,65.66
2024-01-06T15:17:30.076Z,65.70
2024-01-06T15:19:58.340Z,65.59
2024-01-06T15:22:26.918Z,65.66
2024-01-06T15:24:57.903Z,65.87
2024-01-06T15:27:27.183Z,65.80
2024-01-06T15:29:55.429Z,65.76
2024-01-06T15:32:23.760Z,65.73
2024-01-06T15:34:52.853Z,65.89
2024-01-06T15:37:21.397Z,65.87
2024-01-06T15:39:49.891Z,66.22
2024-01-06T15:42:18.645Z,65.64
2024-01-06T15:44:46.915Z,65.72
2024-01-06T15:47:15.573Z,66.46
2024-01-06T15:49:44.300Z,66.38
2024-01-06T15:52:12.739Z,66.46
2024-01-06T15:54:41.681Z,67.51
2024-01-06T15:57:11.062Z,67.42
2024-01-06T15:59:39.357Z,67.29
2024-01-06T16:02:07.802Z,67.31
2024-01-06T16:04:36.097Z,67.28
2024-01-06T16:07:07.157Z,67.11
2024-01-06T16:09:35.817Z,67.22
2024-01-06T16:12:07.424Z,67.26
2024-01-06T16:14:36.754Z,67.37
2024-01-06T16:17:05.329Z,67.36
2024-01-06T16:19:34.008Z,67.34
2024-01-06T16:22:11.409Z,67.36
2024-01-06T16:24:46.296Z,67.57
2024-01-06T16:27:15.104Z,67.64
2024-01-06T16:29:43.603Z,67.56
2024-01-06T16:32:12.028Z,67.75
2024-01-06T16:34:42.709Z,67.95
2024-01-06T16:37:12.316Z,68.26
2024-01-06T16:39:41.092Z,68.25
2024-01-06T16:42:09.465Z,68.67
2024-01-06T16:44:37.841Z,68.95
2024-01-06T16:47:06.743Z,69.19
2024-01-06T16:49:35.204Z,69.46
2024-01-06T16:52:04.238Z,69.25
2024-01-06T16:54:32.612Z,69.38
2024-01-06T16:57:01.453Z,69.17
2024-01-06T16:59:31.595Z,69.21
2024-01-06T17:02:01.974Z,69.31
2024-01-06T17:04:31.447Z,69.44
2024-01-06T17:07:01.024Z,69.45
2024-01-06T17:09:29.738Z,69.20
2024-01-06T17:11:58.080Z,69.28
2024-01-06T17:14:27.179Z,69.45
2024-01-06T17:16:55.260Z,69.60
2024-01-06T17:19:23.822Z,69.81
2024-01-06T17:21:52.203Z,69.57
2024-01-06T17:24:20.836Z,69.52
2024-01-06T17:26:49.096Z,69.37
2024-01-06T17:29:19.572Z,69.32
2024-01-06T17:31:48.246Z,69.30
2024-01-06T17:34:16.811Z,69.52
2024-01-06T17:36:45.109Z,69.53
2024-01-06T17:39:13.524Z,69.55
2024-01-06T17:41:50.025Z,69.37
2024-01-06T17:44:25.567Z,69.35
2024-01-06T17:46:54.434Z,69.18
2024-01-06T17:49:22.664Z,69.44
2024-01-06T17:51:51.299Z,69.59
2024-01-06T17:54:21.455Z,69.34
2024-01-06T17:56:50.170Z,69.54
2024-01-06T17:59:18.614Z,69.35
2024-01-06T18:01:46.925Z,69.29
2024-01-06T18:04:15.369Z,69.23
2024-01-06T18:06:45.012Z,68.96
2024-01-06T18:09:13.975Z,68.87
2024-01-06T18:11:43.902Z,68.97
2024-01-06T18:14:12.834Z,68.80
2024-01-06T18:16:41.673Z,68.85
2024-01-06T18:19:10.310Z,68.93
2024-01-06T18:21:38.899Z,68.97
2024-01-06T18:24:07.294Z,68.85
2024-01-06T18:26:35.481Z,69.10
2024-01-06T18:29:03.896Z,69.27
2024-01-06T18:31:32.870Z,69.29
2024-01-06T18:34:01.329Z,69.05
2024-01-06T18:36:29.987Z,68.92
2024-01-06T18:38:58.569Z,69.01
2024-01-06T18:41:27.391Z,68.74
2024-01-06T18:43:55.606Z,69.13
2024-01-06T18:46:24.056Z,69.26
2024-01-06T18:48:52.556Z,69.30
2024-01-06T18:51:20.874Z,69.32
2024-01-06T18:53:49.039Z,69.31
2024-01-06T18:56:17.482Z,69.09
2024-01-06T18:58:45.593Z,69.18
2024-01-06T19:01:13.852Z,69.30
2024-01-06T19:03:44.861Z,69.38
2024-01-06T19:06:13.183Z,69.65
2024-01-06T19:08:42.348Z,70.04
2024-01-06T19:11:10.505Z,70.26
2024-01-06T19:13:39.677Z,70.28
2024-01-06T19:16:08.886Z,70.33
2024-01-06T19:18:37.339Z,70.61
2024-01-06T19:21:08.037Z,70.62
2024-01-06T19:23:36.359Z,70.69
2024-01-06T19:26:05.791Z,71.01
2024-01-06T19:28:34.412Z,70.96
2024-01-06T19:31:02.908Z,71.48
2024-01-06T19:33:31.402Z,71.63
2024-01-06T19:36:00.090Z,71.74
2024-01-06T19:38:28.870Z,71.72
2024-01-06T19:40:57.223Z,71.84
2024-01-06T19:43:25.917Z,71.96
2024-01-06T19:45:55.570Z,71.93
2024-01-06T19:48:24.662Z,71.82
2024-01-06T19:50:53.697Z,71.99
2024-01-06T19:53:22.126Z,72.00
2024-01-06T19:55:50.309Z,72.33
2024-01-06T19:58:18.593Z,72.23
2024-01-06T20:00:47.033Z,72.27
2024-01-06T20:03:15.446Z,72.49
2024-01-06T20:05:44.390Z,72.87
2024-01-06T20:08:13.246Z,72.96
2024-01-06T20:10:41.343Z,73.04
2024-01-06T20:13:09.786Z,73.22
2024-01-06T20:15:39.317Z,72.88
2024-01-06T20:18:07.816Z,72.78
2024-01-06T20:20:36.414Z,72.76
2024-01-06T20:23:05.054Z,72.94
2024-01-06T20:25:33.243Z,72.88
2024-01-06T20:28:02.139Z,72.65
2024-01-06T20:30:31.125Z,72.75
2024-01-06T20:32:59.899Z,73.10
2024-01-06T20:35:28.556Z,73.06
2024-01-06T20:37:57.834Z,73.22
2024-01-06T20:40:27.026Z,73.16
2024-01-06T20:42:55.412Z,73.19
2024-01-06T20:45:23.954Z,73.16
2024-01-06T20:47:53.449Z,73.50
2024-01-06T20:50:22.208Z,73.42
2024-01-06T20:52:50.324Z,73.75
2024-01-06T20:55:18.506Z,73.73
2024-01-06T20:57:47.613Z,73.75
2024-01-06T21:00:18.545Z,73.47
2024-01-06T21:02:46.770Z,73.74
2024-01-06T21:05:15.698Z,73.48
2024-01-06T21:07:45.213Z,73.33
2024-01-06T21:10:13.724Z,73.74
2024-01-06T21:12:42.175Z,73.66
2024-01-06T21:15:10.595Z,73.51
2024-01-06T21:17:39.934Z,73.57
2024-01-06T21:20:09.820Z,73.53
2024-01-06T21:22:38.235Z,73.47
2024-01-06T21:25:07.764Z,73.60
2024-01-06T21:27:36.972Z,73.87
2024-01-06T21:30:07.140Z,73.85
2024-01-06T21:32:35.435Z,73.72
2024-01-06T21:35:05.260Z,73.69
2024-01-06T21:37:34.488Z,73.27
2024-01-06T21:40:08.022Z,73.76
2024-01-06T21:42:37.209Z,73.75
2024-01-06T21:45:06.826Z,73.68
2024-01-06T21:47:35.166Z,73.99
2024-01-06T21:50:03.814Z,73.84
2024-01-06T21:52:31.982Z,74.11
2024-01-06T21:55:00.428Z,74.00
2024-01-06T21:57:28.784Z,74.18
2024-01-06T21:59:57.165Z,74.15
2024-01-06T22:02:25.578Z,73.61
2024-01-06T22:04:53.945Z,73.96
2024-01-06T22:07:22.108Z,74.08
2024-01-06T22:09:50.483Z,74.39
2024-01-06T22:12:19.107Z,74.08
2024-01-06T22:14:47.503Z,74.33
2024-01-06T22:17:16.061Z,74.51
2024-01-06T22:19:45.117Z,74.48
2024-01-06T22:22:13.985Z,74.60
2024-01-06T22:24:45.755Z,74.74
2024-01-06T22:27:16.154Z,74.44
2024-01-06T22:29:45.862Z,74.21
2024-01-06T22:32:14.047Z,74.32
2024-01-06T22:34:45.734Z,74.12
2024-01-06T22:37:15.071Z,74.43
2024-01-06T22:39:44.080Z,74.50
2024-01-06T22:42:12.556Z,74.68
2024-01-06T22:44:42.130Z,74.41
2024-01-06T22:47:10.348Z,74.44
2024-01-06T22:49:38.739Z,74.26
2024-01-06T22:52:07.070Z,74.29
2024-01-06T22:54:36.257Z,74.32
2024-01-06T22:57:05.343Z,74.12
2024-01-06T22:59:33.473Z,73.99
2024-01-06T23:02:01.620Z,73.89
2024-01-06T23:04:30.361Z,73.97
2024-01-06T23:06:58.704Z,74.12
2024-01-06T23:09:27.112Z,73.99
2024-01-06T23:11:55.526Z,74.51
2024-01-06T23:14:25.090Z,74.70
2024-01-06T23:16:53.742Z,74.40
2024-01-06T23:19:21.992Z,74.28
2024-01-06T23:21:50.330Z,73.86
2024-01-06T23:24:19.813Z,74.01
2024-01-06T23:26:48.454Z,73.75
2024-01-06T23:29:16.928Z,74.00
2024-01-06T23:31:45.555Z,74.03
2024-01-06T23:34:21.901Z,74.07
2024-01-06T23:37:01.781Z,74.20
2024-01-06T23:39:30.173Z,74.27
2024-01-06T23:41:58.506Z,74.24
2024-01-06T23:44:26.678Z,73.97
2024-01-06T23:46:55.807Z,74.39
2024-01-06T23:49:24.283Z,74.41
2024-01-06T23:51:52.523Z,74.48
2024-01-06T23:54:21.426Z,74.53
2024-01-06T23:56:49.779Z,74.34
2024-01-06T23:59:19.086Z,74.52
